sensor_id;sensor_type;location;lat;lon;timestamp;P1;durP1;ratioP1;P2;durP2;ratioP2
74535;SDS011;63013;51.104;-115.370;2023-03-13T00:02:02;0.50;;;0.50;;
74535;SDS011;63013;51.104;-115.370;2023-03-13T00:04:36;0.80;;;0.40;;
74535;SDS011;63013;51.104;-115.370;2023-03-13T00:07:06;0.70;;;0.60;;
74535;SDS011;63013;51.104;-115.370;2023-03-13T00:09:35;0.80;;;0.40;;
74535;SDS011;63013;51.104;-115.370;2023-03-13T00:12:03;0.80;;;0.50;;
74535;SDS011;63013;51.104;-115.370;2023-03-13T00:14:30;0.40;;;0.40;;
74535;SDS011;63013;51.104;-115.370;2023-03-13T00:16:58;1.50;;;0.60;;
74535;SDS011;63013;51.104;-115.370;2023-03-13T00:19:28;0.50;;;0.40;;
74535;SDS011;63013;51.104;-115.370;2023-03-13T00:22:04;0.60;;;0.40;;
74535;SDS011;63013;51.104;-115.370;2023-03-13T00:24:52;0.50;;;0.40;;
74535;SDS011;63013;51.104;-115.370;2023-03-13T00:27:19;0.40;;;0.30;;
74535;SDS011;63013;51.104;-115.370;2023-03-13T00:29:46;0.40;;;0.40;;
74535;SDS011;63013;51.104;-115.370;2023-03-13T00:32:23;1.10;;;0.50;;
74535;SDS011;63013;51.104;-115.370;2023-03-13T00:35:25;0.60;;;0.60;;
74535;SDS011;63013;51.104;-115.370;2023-03-13T00:37:51;0.60;;;0.50;;
74535;SDS011;63013;51.104;-115.370;2023-03-13T00:40:19;0.70;;;0.40;;
74535;SDS011;63013;51.104;-115.370;2023-03-13T00:42:47;0.60;;;0.40;;
74535;SDS011;63013;51.104;-115.370;2023-03-13T00:45:14;0.60;;;0.60;;
74535;SDS011;63013;51.104;-115.370;2023-03-13T00:47:41;0.70;;;0.40;;
74535;SDS011;63013;51.104;-115.370;2023-03-13T00:50:08;0.90;;;0.70;;
74535;SDS011;63013;51.104;-115.370;2023-03-13T00:52:36;0.50;;;0.40;;
74535;SDS011;63013;51.104;-115.370;2023-03-13T00:55:03;0.50;;;0.50;;
74535;SDS011;63013;51.104;-115.370;2023-03-13T00:57:31;0.60;;;0.50;;
74535;SDS011;63013;51.104;-115.370;2023-03-13T01:00:03;0.60;;;0.50;;
74535;SDS011;63013;51.104;-115.370;2023-03-13T01:02:31;1.20;;;0.50;;
74535;SDS011;63013;51.104;-115.370;2023-03-13T01:04:59;1.00;;;0.40;;
74535;SDS011;63013;51.104;-115.370;2023-03-13T01:07:27;0.60;;;0.60;;
74535;SDS011;63013;51.104;-115.370;2023-03-13T01:09:55;0.50;;;0.50;;
74535;SDS011;63013;51.104;-115.370;2023-03-13T01:12:22;0.50;;;0.40;;
74535;SDS011;63013;51.104;-115.370;2023-03-13T01:14:49;0.70;;;0.60;;
74535;SDS011;63013;51.104;-115.370;2023-03-13T01:17:16;0.60;;;0.40;;
74535;SDS011;63013;51.104;-115.370;2023-03-13T01:19:44;0.60;;;0.40;;
74535;SDS011;63013;51.104;-115.370;2023-03-13T01:22:11;0.30;;;0.30;;
74535;SDS011;63013;51.104;-115.370;2023-03-13T01:24:38;0.80;;;0.40;;
74535;SDS011;63013;51.104;-115.370;2023-03-13T01:27:05;3.00;;;0.60;;
74535;SDS011;63013;51.104;-115.370;2023-03-13T01:29:33;0.50;;;0.50;;
74535;SDS011;63013;51.104;-115.370;2023-03-13T01:32:00;0.90;;;0.50;;
74535;SDS011;63013;51.104;-115.370;2023-03-13T01:34:27;0.50;;;0.40;;
74535;SDS011;63013;51.104;-115.370;2023-03-13T01:36:54;0.60;;;0.40;;
74535;SDS011;63013;51.104;-115.370;2023-03-13T01:39:21;0.50;;;0.40;;
74535;SDS011;63013;51.104;-115.370;2023-03-13T01:41:48;0.80;;;0.50;;
74535;SDS011;63013;51.104;-115.370;2023-03-13T01:44:24;0.80;;;0.40;;
74535;SDS011;63013;51.104;-115.370;2023-03-13T01:46:52;0.80;;;0.60;;
74535;SDS011;63013;51.104;-115.370;2023-03-13T01:49:23;0.50;;;0.50;;
74535;SDS011;63013;51.104;-115.370;2023-03-13T01:52:10;0.70;;;0.70;;
74535;SDS011;63013;51.104;-115.370;2023-03-13T01:54:53;1.20;;;0.40;;
74535;SDS011;63013;51.104;-115.370;2023-03-13T01:57:37;0.50;;;0.50;;
74535;SDS011;63013;51.104;-115.370;2023-03-13T02:00:14;0.80;;;0.50;;
74535;SDS011;63013;51.104;-115.370;2023-03-13T02:02:51;0.60;;;0.40;;
74535;SDS011;63013;51.104;-115.370;2023-03-13T02:05:23;0.40;;;0.40;;
74535;SDS011;63013;51.104;-115.370;2023-03-13T02:07:56;1.10;;;0.40;;
74535;SDS011;63013;51.104;-115.370;2023-03-13T02:10:42;0.40;;;0.40;;
74535;SDS011;63013;51.104;-115.370;2023-03-13T02:13:17;1.90;;;0.50;;
74535;SDS011;63013;51.104;-115.370;2023-03-13T02:15:46;0.70;;;0.60;;
74535;SDS011;63013;51.104;-115.370;2023-03-13T02:18:15;0.50;;;0.40;;
74535;SDS011;63013;51.104;-115.370;2023-03-13T02:20:42;0.70;;;0.50;;
74535;SDS011;63013;51.104;-115.370;2023-03-13T02:23:33;1.50;;;0.60;;
74535;SDS011;63013;51.104;-115.370;2023-03-13T02:26:06;0.90;;;0.40;;
74535;SDS011;63013;51.104;-115.370;2023-03-13T02:28:35;0.90;;;0.40;;
74535;SDS011;63013;51.104;-115.370;2023-03-13T02:31:05;0.80;;;0.40;;
74535;SDS011;63013;51.104;-115.370;2023-03-13T02:33:37;0.90;;;0.60;;
74535;SDS011;63013;51.104;-115.370;2023-03-13T02:36:07;1.80;;;0.50;;
74535;SDS011;63013;51.104;-115.370;2023-03-13T02:38:39;0.40;;;0.40;;
74535;SDS011;63013;51.104;-115.370;2023-03-13T02:41:13;1.40;;;0.40;;
74535;SDS011;63013;51.104;-115.370;2023-03-13T02:43:41;1.00;;;0.50;;
74535;SDS011;63013;51.104;-115.370;2023-03-13T02:46:12;1.20;;;0.60;;
74535;SDS011;63013;51.104;-115.370;2023-03-13T02:48:44;0.80;;;0.60;;
74535;SDS011;63013;51.104;-115.370;2023-03-13T02:54:02;0.50;;;0.40;;
74535;SDS011;63013;51.104;-115.370;2023-03-13T02:56:37;1.00;;;0.60;;
74535;SDS011;63013;51.104;-115.370;2023-03-13T02:59:06;0.70;;;0.50;;
74535;SDS011;63013;51.104;-115.370;2023-03-13T03:01:33;0.80;;;0.60;;
74535;SDS011;63013;51.104;-115.370;2023-03-13T03:04:00;0.90;;;0.50;;
74535;SDS011;63013;51.104;-115.370;2023-03-13T03:06:28;1.30;;;0.70;;
74535;SDS011;63013;51.104;-115.370;2023-03-13T03:08:55;1.80;;;0.60;;
74535;SDS011;63013;51.104;-115.370;2023-03-13T03:11:22;0.70;;;0.50;;
74535;SDS011;63013;51.104;-115.370;2023-03-13T03:13:49;2.20;;;0.60;;
74535;SDS011;63013;51.104;-115.370;2023-03-13T03:16:16;0.80;;;0.70;;
74535;SDS011;63013;51.104;-115.370;2023-03-13T03:18:43;1.60;;;0.50;;
74535;SDS011;63013;51.104;-115.370;2023-03-13T03:21:11;0.90;;;0.60;;
74535;SDS011;63013;51.104;-115.370;2023-03-13T03:23:39;1.40;;;0.70;;
74535;SDS011;63013;51.104;-115.370;2023-03-13T03:26:06;1.10;;;0.70;;
74535;SDS011;63013;51.104;-115.370;2023-03-13T03:28:33;0.80;;;0.50;;
74535;SDS011;63013;51.104;-115.370;2023-03-13T03:31:09;2.50;;;1.00;;
74535;SDS011;63013;51.104;-115.370;2023-03-13T03:33:38;1.20;;;0.50;;
74535;SDS011;63013;51.104;-115.370;2023-03-13T03:36:11;1.40;;;0.60;;
74535;SDS011;63013;51.104;-115.370;2023-03-13T03:38:43;1.30;;;0.50;;
74535;SDS011;63013;51.104;-115.370;2023-03-13T03:41:14;1.10;;;0.70;;
74535;SDS011;63013;51.104;-115.370;2023-03-13T03:43:41;1.60;;;0.70;;
74535;SDS011;63013;51.104;-115.370;2023-03-13T03:46:09;1.00;;;0.60;;
74535;SDS011;63013;51.104;-115.370;2023-03-13T03:48:36;1.00;;;0.60;;
74535;SDS011;63013;51.104;-115.370;2023-03-13T03:51:04;1.10;;;0.60;;
74535;SDS011;63013;51.104;-115.370;2023-03-13T03:53:32;2.10;;;0.70;;
74535;SDS011;63013;51.104;-115.370;2023-03-13T03:56:00;1.10;;;0.60;;
74535;SDS011;63013;51.104;-115.370;2023-03-13T03:58:27;1.30;;;0.60;;
74535;SDS011;63013;51.104;-115.370;2023-03-13T04:00:56;1.30;;;0.70;;
74535;SDS011;63013;51.104;-115.370;2023-03-13T04:03:24;1.30;;;0.60;;
74535;SDS011;63013;51.104;-115.370;2023-03-13T04:05:51;0.80;;;0.50;;
74535;SDS011;63013;51.104;-115.370;2023-03-13T04:08:18;1.00;;;0.60;;
74535;SDS011;63013;51.104;-115.370;2023-03-13T04:10:46;1.90;;;0.60;;
74535;SDS011;63013;51.104;-115.370;2023-03-13T04:13:13;1.50;;;0.70;;
74535;SDS011;63013;51.104;-115.370;2023-03-13T04:15:41;1.50;;;0.70;;
74535;SDS011;63013;51.104;-115.370;2023-03-13T04:18:08;1.40;;;0.60;;
74535;SDS011;63013;51.104;-115.370;2023-03-13T04:20:36;1.60;;;0.70;;
74535;SDS011;63013;51.104;-115.370;2023-03-13T04:23:03;1.10;;;0.70;;
74535;SDS011;63013;51.104;-115.370;2023-03-13T04:25:30;1.10;;;0.70;;
74535;SDS011;63013;51.104;-115.370;2023-03-13T04:27:57;0.80;;;0.60;;
74535;SDS011;63013;51.104;-115.370;2023-03-13T04:30:24;0.90;;;0.50;;
74535;SDS011;63013;51.104;-115.370;2023-03-13T04:32:51;1.20;;;0.80;;
74535;SDS011;63013;51.104;-115.370;2023-03-13T04:35:18;1.20;;;0.40;;
74535;SDS011;63013;51.104;-115.370;2023-03-13T04:37:46;1.10;;;0.70;;
74535;SDS011;63013;51.104;-115.370;2023-03-13T04:40:13;2.10;;;0.80;;
74535;SDS011;63013;51.104;-115.370;2023-03-13T04:42:41;0.90;;;0.50;;
74535;SDS011;63013;51.104;-115.370;2023-03-13T04:45:11;2.40;;;0.80;;
74535;SDS011;63013;51.104;-115.370;2023-03-13T04:47:38;1.60;;;0.70;;
74535;SDS011;63013;51.104;-115.370;2023-03-13T04:50:05;1.40;;;0.60;;
74535;SDS011;63013;51.104;-115.370;2023-03-13T04:52:33;1.30;;;0.70;;
74535;SDS011;63013;51.104;-115.370;2023-03-13T04:55:00;1.10;;;0.70;;
74535;SDS011;63013;51.104;-115.370;2023-03-13T04:57:27;1.30;;;0.60;;
74535;SDS011;63013;51.104;-115.370;2023-03-13T04:59:54;1.10;;;0.70;;
74535;SDS011;63013;51.104;-115.370;2023-03-13T05:02:22;1.80;;;0.60;;
74535;SDS011;63013;51.104;-115.370;2023-03-13T05:04:49;1.50;;;1.00;;
74535;SDS011;63013;51.104;-115.370;2023-03-13T05:07:16;1.10;;;0.50;;
74535;SDS011;63013;51.104;-115.370;2023-03-13T05:09:43;1.10;;;0.50;;
74535;SDS011;63013;51.104;-115.370;2023-03-13T05:12:10;1.40;;;0.60;;
74535;SDS011;63013;51.104;-115.370;2023-03-13T05:14:38;1.20;;;0.50;;
74535;SDS011;63013;51.104;-115.370;2023-03-13T05:17:05;0.70;;;0.50;;
74535;SDS011;63013;51.104;-115.370;2023-03-13T05:19:32;1.40;;;0.60;;
74535;SDS011;63013;51.104;-115.370;2023-03-13T05:21:59;1.30;;;0.60;;
74535;SDS011;63013;51.104;-115.370;2023-03-13T05:24:26;1.50;;;0.70;;
74535;SDS011;63013;51.104;-115.370;2023-03-13T05:26:53;0.80;;;0.70;;
74535;SDS011;63013;51.104;-115.370;2023-03-13T05:29:20;1.10;;;0.60;;
74535;SDS011;63013;51.104;-115.370;2023-03-13T05:31:48;0.90;;;0.70;;
74535;SDS011;63013;51.104;-115.370;2023-03-13T05:34:15;1.30;;;0.60;;
74535;SDS011;63013;51.104;-115.370;2023-03-13T05:36:42;1.20;;;0.60;;
74535;SDS011;63013;51.104;-115.370;2023-03-13T05:39:09;1.10;;;0.60;;
74535;SDS011;63013;51.104;-115.370;2023-03-13T05:41:36;1.00;;;0.60;;
74535;SDS011;63013;51.104;-115.370;2023-03-13T05:44:04;1.60;;;0.60;;
74535;SDS011;63013;51.104;-115.370;2023-03-13T05:46:31;1.00;;;0.70;;
74535;SDS011;63013;51.104;-115.370;2023-03-13T05:48:59;1.10;;;0.60;;
74535;SDS011;63013;51.104;-115.370;2023-03-13T05:51:26;2.50;;;0.60;;
74535;SDS011;63013;51.104;-115.370;2023-03-13T05:53:53;1.50;;;0.80;;
74535;SDS011;63013;51.104;-115.370;2023-03-13T05:56:20;1.60;;;0.60;;
74535;SDS011;63013;51.104;-115.370;2023-03-13T05:58:47;1.60;;;0.70;;
74535;SDS011;63013;51.104;-115.370;2023-03-13T06:01:14;1.00;;;0.70;;
74535;SDS011;63013;51.104;-115.370;2023-03-13T06:03:41;1.30;;;0.70;;
74535;SDS011;63013;51.104;-115.370;2023-03-13T06:06:09;1.10;;;0.70;;
74535;SDS011;63013;51.104;-115.370;2023-03-13T06:08:36;0.90;;;0.60;;
74535;SDS011;63013;51.104;-115.370;2023-03-13T06:11:03;0.90;;;0.50;;
74535;SDS011;63013;51.104;-115.370;2023-03-13T06:13:30;1.10;;;0.90;;
74535;SDS011;63013;51.104;-115.370;2023-03-13T06:15:57;1.50;;;0.60;;
74535;SDS011;63013;51.104;-115.370;2023-03-13T06:18:25;2.10;;;1.00;;
74535;SDS011;63013;51.104;-115.370;2023-03-13T06:21:00;1.30;;;0.70;;
74535;SDS011;63013;51.104;-115.370;2023-03-13T06:23:28;1.90;;;0.90;;
74535;SDS011;63013;51.104;-115.370;2023-03-13T06:25:55;1.80;;;0.80;;
74535;SDS011;63013;51.104;-115.370;2023-03-13T06:28:22;1.00;;;0.70;;
74535;SDS011;63013;51.104;-115.370;2023-03-13T06:30:49;1.10;;;0.60;;
74535;SDS011;63013;51.104;-115.370;2023-03-13T06:33:16;1.00;;;0.80;;
74535;SDS011;63013;51.104;-115.370;2023-03-13T06:35:44;1.50;;;0.80;;
74535;SDS011;63013;51.104;-115.370;2023-03-13T06:38:11;1.30;;;0.60;;
74535;SDS011;63013;51.104;-115.370;2023-03-13T06:40:38;1.10;;;0.60;;
74535;SDS011;63013;51.104;-115.370;2023-03-13T06:43:05;1.10;;;0.70;;
74535;SDS011;63013;51.104;-115.370;2023-03-13T06:45:34;2.00;;;0.70;;
74535;SDS011;63013;51.104;-115.370;2023-03-13T06:48:03;1.10;;;0.70;;
74535;SDS011;63013;51.104;-115.370;2023-03-13T06:50:30;1.10;;;0.50;;
74535;SDS011;63013;51.104;-115.370;2023-03-13T06:52:57;1.10;;;0.70;;
74535;SDS011;63013;51.104;-115.370;2023-03-13T06:55:24;1.20;;;0.60;;
74535;SDS011;63013;51.104;-115.370;2023-03-13T06:57:52;0.90;;;0.50;;
74535;SDS011;63013;51.104;-115.370;2023-03-13T07:00:19;1.10;;;0.60;;
74535;SDS011;63013;51.104;-115.370;2023-03-13T07:02:47;1.00;;;0.60;;
74535;SDS011;63013;51.104;-115.370;2023-03-13T07:05:15;1.70;;;0.70;;
74535;SDS011;63013;51.104;-115.370;2023-03-13T07:07:42;1.50;;;0.60;;
74535;SDS011;63013;51.104;-115.370;2023-03-13T07:10:10;0.90;;;0.80;;
74535;SDS011;63013;51.104;-115.370;2023-03-13T07:12:38;1.20;;;0.70;;
74535;SDS011;63013;51.104;-115.370;2023-03-13T07:15:06;1.40;;;0.60;;
74535;SDS011;63013;51.104;-115.370;2023-03-13T07:17:33;1.50;;;0.60;;
74535;SDS011;63013;51.104;-115.370;2023-03-13T07:20:04;1.40;;;0.60;;
74535;SDS011;63013;51.104;-115.370;2023-03-13T07:22:35;0.80;;;0.60;;
74535;SDS011;63013;51.104;-115.370;2023-03-13T07:25:04;1.10;;;0.60;;
74535;SDS011;63013;51.104;-115.370;2023-03-13T07:27:32;1.50;;;0.70;;
74535;SDS011;63013;51.104;-115.370;2023-03-13T07:29:59;1.10;;;0.70;;
74535;SDS011;63013;51.104;-115.370;2023-03-13T07:32:30;0.80;;;0.50;;
74535;SDS011;63013;51.104;-115.370;2023-03-13T07:34:58;1.10;;;0.70;;
74535;SDS011;63013;51.104;-115.370;2023-03-13T07:37:25;1.10;;;0.70;;
74535;SDS011;63013;51.104;-115.370;2023-03-13T07:39:52;1.00;;;0.60;;
74535;SDS011;63013;51.104;-115.370;2023-03-13T07:42:19;1.80;;;0.80;;
74535;SDS011;63013;51.104;-115.370;2023-03-13T07:44:50;1.40;;;0.70;;
74535;SDS011;63013;51.104;-115.370;2023-03-13T07:47:18;1.70;;;0.60;;
74535;SDS011;63013;51.104;-115.370;2023-03-13T07:49:45;1.00;;;0.60;;
74535;SDS011;63013;51.104;-115.370;2023-03-13T07:52:12;1.20;;;0.70;;
74535;SDS011;63013;51.104;-115.370;2023-03-13T07:54:40;1.10;;;0.70;;
74535;SDS011;63013;51.104;-115.370;2023-03-13T07:57:07;1.10;;;0.70;;
74535;SDS011;63013;51.104;-115.370;2023-03-13T07:59:34;1.50;;;0.60;;
74535;SDS011;63013;51.104;-115.370;2023-03-13T08:02:05;1.50;;;0.70;;
74535;SDS011;63013;51.104;-115.370;2023-03-13T08:04:35;1.40;;;0.80;;
74535;SDS011;63013;51.104;-115.370;2023-03-13T08:07:02;0.80;;;0.60;;
74535;SDS011;63013;51.104;-115.370;2023-03-13T08:09:33;1.10;;;0.60;;
74535;SDS011;63013;51.104;-115.370;2023-03-13T08:12:00;1.40;;;0.70;;
74535;SDS011;63013;51.104;-115.370;2023-03-13T08:14:27;1.40;;;0.80;;
74535;SDS011;63013;51.104;-115.370;2023-03-13T08:16:54;1.40;;;0.60;;
74535;SDS011;63013;51.104;-115.370;2023-03-13T08:19:22;0.80;;;0.70;;
74535;SDS011;63013;51.104;-115.370;2023-03-13T08:21:49;1.10;;;0.60;;
74535;SDS011;63013;51.104;-115.370;2023-03-13T08:24:16;0.70;;;0.60;;
74535;SDS011;63013;51.104;-115.370;2023-03-13T08:26:43;0.80;;;0.50;;
74535;SDS011;63013;51.104;-115.370;2023-03-13T08:29:12;0.80;;;0.50;;
74535;SDS011;63013;51.104;-115.370;2023-03-13T08:31:45;1.70;;;0.60;;
74535;SDS011;63013;51.104;-115.370;2023-03-13T08:34:15;1.10;;;0.70;;
74535;SDS011;63013;51.104;-115.370;2023-03-13T08:36:43;1.50;;;0.60;;
74535;SDS011;63013;51.104;-115.370;2023-03-13T08:39:16;1.10;;;0.80;;
74535;SDS011;63013;51.104;-115.370;2023-03-13T08:41:45;1.10;;;0.70;;
74535;SDS011;63013;51.104;-115.370;2023-03-13T08:44:14;2.10;;;0.70;;
74535;SDS011;63013;51.104;-115.370;2023-03-13T08:46:42;0.80;;;0.60;;
74535;SDS011;63013;51.104;-115.370;2023-03-13T08:49:10;1.30;;;0.70;;
74535;SDS011;63013;51.104;-115.370;2023-03-13T08:51:38;1.10;;;0.70;;
74535;SDS011;63013;51.104;-115.370;2023-03-13T08:54:05;1.60;;;0.60;;
74535;SDS011;63013;51.104;-115.370;2023-03-13T08:56:32;1.00;;;0.70;;
74535;SDS011;63013;51.104;-115.370;2023-03-13T08:59:02;0.90;;;0.60;;
74535;SDS011;63013;51.104;-115.370;2023-03-13T09:01:32;1.40;;;0.70;;
74535;SDS011;63013;51.104;-115.370;2023-03-13T09:04:00;1.20;;;0.80;;
74535;SDS011;63013;51.104;-115.370;2023-03-13T09:06:29;1.30;;;0.60;;
74535;SDS011;63013;51.104;-115.370;2023-03-13T09:08:56;1.10;;;0.60;;
74535;SDS011;63013;51.104;-115.370;2023-03-13T09:11:23;1.50;;;0.70;;
74535;SDS011;63013;51.104;-115.370;2023-03-13T09:13:51;0.80;;;0.60;;
74535;SDS011;63013;51.104;-115.370;2023-03-13T09:16:22;1.10;;;0.70;;
74535;SDS011;63013;51.104;-115.370;2023-03-13T09:18:51;1.60;;;1.00;;
74535;SDS011;63013;51.104;-115.370;2023-03-13T09:21:21;1.50;;;0.70;;
74535;SDS011;63013;51.104;-115.370;2023-03-13T09:23:51;1.30;;;0.70;;
74535;SDS011;63013;51.104;-115.370;2023-03-13T09:26:19;1.50;;;0.70;;
74535;SDS011;63013;51.104;-115.370;2023-03-13T09:28:46;1.00;;;0.70;;
74535;SDS011;63013;51.104;-115.370;2023-03-13T09:31:20;1.20;;;0.70;;
74535;SDS011;63013;51.104;-115.370;2023-03-13T09:33:51;1.10;;;0.80;;
74535;SDS011;63013;51.104;-115.370;2023-03-13T09:36:19;2.20;;;0.80;;
74535;SDS011;63013;51.104;-115.370;2023-03-13T09:38:50;0.90;;;0.50;;
74535;SDS011;63013;51.104;-115.370;2023-03-13T09:41:47;0.90;;;0.60;;
74535;SDS011;63013;51.104;-115.370;2023-03-13T09:44:32;1.20;;;0.50;;
74535;SDS011;63013;51.104;-115.370;2023-03-13T09:50:02;1.10;;;0.70;;
74535;SDS011;63013;51.104;-115.370;2023-03-13T09:52:40;1.40;;;0.70;;
74535;SDS011;63013;51.104;-115.370;2023-03-13T09:55:13;0.80;;;0.60;;
74535;SDS011;63013;51.104;-115.370;2023-03-13T09:57:58;1.00;;;0.60;;
74535;SDS011;63013;51.104;-115.370;2023-03-13T10:00:39;1.20;;;0.60;;
74535;SDS011;63013;51.104;-115.370;2023-03-13T10:03:16;0.90;;;0.50;;
74535;SDS011;63013;51.104;-115.370;2023-03-13T10:06:01;1.00;;;0.70;;
74535;SDS011;63013;51.104;-115.370;2023-03-13T10:08:33;0.80;;;0.50;;
74535;SDS011;63013;51.104;-115.370;2023-03-13T10:11:04;0.80;;;0.70;;
74535;SDS011;63013;51.104;-115.370;2023-03-13T10:16:26;1.30;;;0.70;;
74535;SDS011;63013;51.104;-115.370;2023-03-13T10:18:58;1.50;;;0.70;;
74535;SDS011;63013;51.104;-115.370;2023-03-13T10:21:32;1.30;;;0.60;;
74535;SDS011;63013;51.104;-115.370;2023-03-13T10:24:17;0.90;;;0.50;;
74535;SDS011;63013;51.104;-115.370;2023-03-13T10:27:24;1.00;;;0.60;;
74535;SDS011;63013;51.104;-115.370;2023-03-13T10:29:51;0.80;;;0.40;;
74535;SDS011;63013;51.104;-115.370;2023-03-13T10:32:19;2.30;;;0.80;;
74535;SDS011;63013;51.104;-115.370;2023-03-13T10:34:50;1.10;;;0.80;;
74535;SDS011;63013;51.104;-115.370;2023-03-13T10:37:27;1.50;;;0.70;;
74535;SDS011;63013;51.104;-115.370;2023-03-13T10:40:20;0.90;;;0.70;;
74535;SDS011;63013;51.104;-115.370;2023-03-13T10:43:01;0.80;;;0.60;;
74535;SDS011;63013;51.104;-115.370;2023-03-13T10:45:38;1.30;;;0.80;;
74535;SDS011;63013;51.104;-115.370;2023-03-13T10:48:19;1.00;;;0.60;;
74535;SDS011;63013;51.104;-115.370;2023-03-13T10:50:49;1.20;;;0.70;;
74535;SDS011;63013;51.104;-115.370;2023-03-13T10:56:03;0.70;;;0.50;;
74535;SDS011;63013;51.104;-115.370;2023-03-13T10:58:34;1.00;;;0.80;;
74535;SDS011;63013;51.104;-115.370;2023-03-13T11:03:51;1.20;;;0.50;;
74535;SDS011;63013;51.104;-115.370;2023-03-13T11:06:32;1.10;;;0.60;;
74535;SDS011;63013;51.104;-115.370;2023-03-13T11:09:17;0.90;;;0.60;;
74535;SDS011;63013;51.104;-115.370;2023-03-13T11:11:54;1.20;;;0.90;;
74535;SDS011;63013;51.104;-115.370;2023-03-13T11:14:27;1.50;;;0.60;;
74535;SDS011;63013;51.104;-115.370;2023-03-13T11:17:35;1.50;;;0.60;;
74535;SDS011;63013;51.104;-115.370;2023-03-13T11:20:24;0.80;;;0.60;;
74535;SDS011;63013;51.104;-115.370;2023-03-13T11:23:26;1.00;;;0.60;;
74535;SDS011;63013;51.104;-115.370;2023-03-13T11:28:52;1.20;;;0.80;;
74535;SDS011;63013;51.104;-115.370;2023-03-13T11:31:49;0.90;;;0.50;;
74535;SDS011;63013;51.104;-115.370;2023-03-13T11:34:41;1.10;;;0.60;;
74535;SDS011;63013;51.104;-115.370;2023-03-13T11:37:15;0.80;;;0.60;;
74535;SDS011;63013;51.104;-115.370;2023-03-13T11:40:15;0.70;;;0.50;;
74535;SDS011;63013;51.104;-115.370;2023-03-13T11:45:54;1.50;;;0.60;;
74535;SDS011;63013;51.104;-115.370;2023-03-13T11:57:17;0.80;;;0.60;;
74535;SDS011;63013;51.104;-115.370;2023-03-13T12:00:18;1.50;;;0.70;;
74535;SDS011;63013;51.104;-115.370;2023-03-13T12:03:03;1.50;;;0.70;;
74535;SDS011;63013;51.104;-115.370;2023-03-13T12:05:48;1.30;;;0.60;;
74535;SDS011;63013;51.104;-115.370;2023-03-13T12:08:38;0.70;;;0.50;;
74535;SDS011;63013;51.104;-115.370;2023-03-13T12:11:26;1.00;;;0.50;;
74535;SDS011;63013;51.104;-115.370;2023-03-13T12:14:01;1.30;;;0.70;;
74535;SDS011;63013;51.104;-115.370;2023-03-13T12:16:59;1.50;;;0.60;;
74535;SDS011;63013;51.104;-115.370;2023-03-13T12:20:04;0.70;;;0.50;;
74535;SDS011;63013;51.104;-115.370;2023-03-13T12:22:51;0.80;;;0.70;;
74535;SDS011;63013;51.104;-115.370;2023-03-13T12:25:37;0.70;;;0.50;;
74535;SDS011;63013;51.104;-115.370;2023-03-13T12:31:03;1.50;;;0.40;;
74535;SDS011;63013;51.104;-115.370;2023-03-13T12:34:01;1.10;;;0.50;;
74535;SDS011;63013;51.104;-115.370;2023-03-13T12:36:43;0.40;;;0.40;;
74535;SDS011;63013;51.104;-115.370;2023-03-13T12:42:14;0.90;;;0.40;;
74535;SDS011;63013;51.104;-115.370;2023-03-13T12:44:43;0.50;;;0.30;;
74535;SDS011;63013;51.104;-115.370;2023-03-13T12:53:34;0.90;;;0.30;;
74535;SDS011;63013;51.104;-115.370;2023-03-13T13:01:52;0.60;;;0.30;;
74535;SDS011;63013;51.104;-115.370;2023-03-13T13:04:31;0.80;;;0.60;;
74535;SDS011;63013;51.104;-115.370;2023-03-13T13:07:03;0.70;;;0.30;;
74535;SDS011;63013;51.104;-115.370;2023-03-13T13:09:35;0.70;;;0.40;;
74535;SDS011;63013;51.104;-115.370;2023-03-13T13:12:22;0.70;;;0.30;;
74535;SDS011;63013;51.104;-115.370;2023-03-13T13:17:42;0.80;;;0.50;;
74535;SDS011;63013;51.104;-115.370;2023-03-13T13:20:45;0.80;;;0.40;;
74535;SDS011;63013;51.104;-115.370;2023-03-13T13:39:52;0.50;;;0.40;;
74535;SDS011;63013;51.104;-115.370;2023-03-13T13:45:17;0.60;;;0.40;;
74535;SDS011;63013;51.104;-115.370;2023-03-13T13:48:13;0.40;;;0.30;;
74535;SDS011;63013;51.104;-115.370;2023-03-13T13:53:47;0.40;;;0.30;;
74535;SDS011;63013;51.104;-115.370;2023-03-13T13:59:23;0.40;;;0.30;;
74535;SDS011;63013;51.104;-115.370;2023-03-13T14:02:19;1.80;;;0.50;;
74535;SDS011;63013;51.104;-115.370;2023-03-13T14:05:04;0.30;;;0.30;;
74535;SDS011;63013;51.104;-115.370;2023-03-13T14:13:38;0.50;;;0.30;;
74535;SDS011;63013;51.104;-115.370;2023-03-13T14:16:21;0.30;;;0.20;;
74535;SDS011;63013;51.104;-115.370;2023-03-13T14:18:51;0.30;;;0.30;;
74535;SDS011;63013;51.104;-115.370;2023-03-13T14:21:23;0.80;;;0.20;;
74535;SDS011;63013;51.104;-115.370;2023-03-13T14:23:52;0.50;;;0.30;;
74535;SDS011;63013;51.104;-115.370;2023-03-13T14:26:24;0.30;;;0.30;;
74535;SDS011;63013;51.104;-115.370;2023-03-13T14:28:58;0.30;;;0.30;;
74535;SDS011;63013;51.104;-115.370;2023-03-13T14:31:35;0.30;;;0.30;;
74535;SDS011;63013;51.104;-115.370;2023-03-13T14:34:07;0.30;;;0.20;;
74535;SDS011;63013;51.104;-115.370;2023-03-13T14:37:00;0.40;;;0.30;;
74535;SDS011;63013;51.104;-115.370;2023-03-13T14:42:05;0.70;;;0.40;;
74535;SDS011;63013;51.104;-115.370;2023-03-13T14:44:37;0.30;;;0.20;;
74535;SDS011;63013;51.104;-115.370;2023-03-13T14:47:21;0.30;;;0.20;;
74535;SDS011;63013;51.104;-115.370;2023-03-13T14:50:11;0.40;;;0.30;;
74535;SDS011;63013;51.104;-115.370;2023-03-13T14:52:52;0.30;;;0.30;;
74535;SDS011;63013;51.104;-115.370;2023-03-13T14:55:41;0.40;;;0.30;;
74535;SDS011;63013;51.104;-115.370;2023-03-13T14:58:28;0.30;;;0.20;;
74535;SDS011;63013;51.104;-115.370;2023-03-13T15:00:56;0.40;;;0.40;;
74535;SDS011;63013;51.104;-115.370;2023-03-13T15:03:30;0.30;;;0.30;;
74535;SDS011;63013;51.104;-115.370;2023-03-13T15:06:13;0.40;;;0.40;;
74535;SDS011;63013;51.104;-115.370;2023-03-13T15:08:46;0.30;;;0.30;;
74535;SDS011;63013;51.104;-115.370;2023-03-13T15:11:29;0.30;;;0.30;;
74535;SDS011;63013;51.104;-115.370;2023-03-13T15:13:59;0.20;;;0.20;;
74535;SDS011;63013;51.104;-115.370;2023-03-13T15:16:27;0.50;;;0.40;;
74535;SDS011;63013;51.104;-115.370;2023-03-13T15:18:55;0.20;;;0.20;;
74535;SDS011;63013;51.104;-115.370;2023-03-13T15:21:28;0.40;;;0.30;;
74535;SDS011;63013;51.104;-115.370;2023-03-13T15:24:01;0.90;;;0.30;;
74535;SDS011;63013;51.104;-115.370;2023-03-13T15:26:37;0.50;;;0.20;;
74535;SDS011;63013;51.104;-115.370;2023-03-13T15:29:08;0.30;;;0.30;;
74535;SDS011;63013;51.104;-115.370;2023-03-13T15:31:36;0.40;;;0.40;;
74535;SDS011;63013;51.104;-115.370;2023-03-13T15:34:08;1.80;;;0.20;;
74535;SDS011;63013;51.104;-115.370;2023-03-13T15:36:38;1.40;;;0.30;;
74535;SDS011;63013;51.104;-115.370;2023-03-13T15:39:17;2.40;;;0.30;;
74535;SDS011;63013;51.104;-115.370;2023-03-13T15:41:45;2.20;;;0.40;;
74535;SDS011;63013;51.104;-115.370;2023-03-13T15:44:13;0.40;;;0.30;;
74535;SDS011;63013;51.104;-115.370;2023-03-13T15:46:40;0.90;;;0.20;;
74535;SDS011;63013;51.104;-115.370;2023-03-13T15:49:10;0.40;;;0.30;;
74535;SDS011;63013;51.104;-115.370;2023-03-13T15:51:37;0.50;;;0.30;;
74535;SDS011;63013;51.104;-115.370;2023-03-13T15:54:05;0.40;;;0.30;;
74535;SDS011;63013;51.104;-115.370;2023-03-13T15:56:37;0.40;;;0.20;;
74535;SDS011;63013;51.104;-115.370;2023-03-13T15:59:11;1.10;;;0.30;;
74535;SDS011;63013;51.104;-115.370;2023-03-13T16:01:43;0.20;;;0.20;;